Twigg, Illinois
Current Conditions -  °F | °C
As of 9:55 AM on Thursday 27 Nov 2014 (Local Time) from KHSB Reporting Station
Haze Haze  
Wind Chill: 19°   Ceiling: 2000
Heat Index: 30°   Visibility: 5mi
Dew Point: 25°   Wind: 15mph
Humidity: 82%   Direction: 310°NW
Pressure: 30.5"   Gusts: NA
Location:  37.9948°N, 88.5401°W
Report Text: KHSB 271555Z AUTO 31013KT 5SM HZ BKN020 BKN048 M01/M04 A3050 RMK AO2 T10121039
Loading
Personal Weather Stations






























Interactive Weather Map New forecast layout! Learn more

10-Day Weather Forecast

Advertisements
Track Severe Weather on mobile